sensor_id;sensor_type;location;lat;lon;timestamp;temperature;humidity
3001;DHT22;1510;51.072;6.678;2023-05-29T00:02:05;14.20;44.10
3001;DHT22;1510;51.072;6.678;2023-05-29T00:04:32;14.30;44.20
3001;DHT22;1510;51.072;6.678;2023-05-29T00:06:59;14.10;45.00
3001;DHT22;1510;51.072;6.678;2023-05-29T00:09:26;14.20;43.80
3001;DHT22;1510;51.072;6.678;2023-05-29T00:11:53;14.20;43.70
3001;DHT22;1510;51.072;6.678;2023-05-29T00:14:21;14.20;43.80
3001;DHT22;1510;51.072;6.678;2023-05-29T00:16:49;14.20;43.60
3001;DHT22;1510;51.072;6.678;2023-05-29T00:19:16;14.10;45.60
3001;DHT22;1510;51.072;6.678;2023-05-29T00:21:43;13.90;47.50
3001;DHT22;1510;51.072;6.678;2023-05-29T00:24:13;13.90;46.30
3001;DHT22;1510;51.072;6.678;2023-05-29T00:26:40;13.90;46.80
3001;DHT22;1510;51.072;6.678;2023-05-29T00:29:07;13.80;45.60
3001;DHT22;1510;51.072;6.678;2023-05-29T00:31:35;13.80;46.90
3001;DHT22;1510;51.072;6.678;2023-05-29T00:34:02;13.80;46.90
3001;DHT22;1510;51.072;6.678;2023-05-29T00:36:29;13.80;47.40
3001;DHT22;1510;51.072;6.678;2023-05-29T00:38:57;13.80;47.40
3001;DHT22;1510;51.072;6.678;2023-05-29T00:41:24;13.80;47.40
3001;DHT22;1510;51.072;6.678;2023-05-29T00:43:50;13.80;47.40
3001;DHT22;1510;51.072;6.678;2023-05-29T00:46:17;13.70;47.30
3001;DHT22;1510;51.072;6.678;2023-05-29T00:48:47;13.70;47.30
3001;DHT22;1510;51.072;6.678;2023-05-29T00:51:14;13.60;47.20
3001;DHT22;1510;51.072;6.678;2023-05-29T00:53:42;13.40;48.20
3001;DHT22;1510;51.072;6.678;2023-05-29T00:56:10;13.30;49.60
3001;DHT22;1510;51.072;6.678;2023-05-29T00:58:37;13.30;50.40
3001;DHT22;1510;51.072;6.678;2023-05-29T01:01:04;13.30;50.80
3001;DHT22;1510;51.072;6.678;2023-05-29T01:03:31;13.20;51.20
3001;DHT22;1510;51.072;6.678;2023-05-29T01:06:00;13.20;51.70
3001;DHT22;1510;51.072;6.678;2023-05-29T01:08:29;13.30;51.70
3001;DHT22;1510;51.072;6.678;2023-05-29T01:11:00;13.20;52.50
3001;DHT22;1510;51.072;6.678;2023-05-29T01:13:31;12.90;55.30
3001;DHT22;1510;51.072;6.678;2023-05-29T01:16:04;12.80;57.90
3001;DHT22;1510;51.072;6.678;2023-05-29T01:18:39;12.60;58.90
3001;DHT22;1510;51.072;6.678;2023-05-29T01:21:12;12.60;60.20
3001;DHT22;1510;51.072;6.678;2023-05-29T01:23:56;12.50;61.60
3001;DHT22;1510;51.072;6.678;2023-05-29T01:26:55;12.50;63.30
3001;DHT22;1510;51.072;6.678;2023-05-29T01:29:24;12.50;63.20
3001;DHT22;1510;51.072;6.678;2023-05-29T01:31:53;12.50;63.30
3001;DHT22;1510;51.072;6.678;2023-05-29T01:34:20;12.40;63.20
3001;DHT22;1510;51.072;6.678;2023-05-29T01:36:47;12.20;66.10
3001;DHT22;1510;51.072;6.678;2023-05-29T01:39:14;12.20;67.00
3001;DHT22;1510;51.072;6.678;2023-05-29T01:41:42;12.20;66.80
3001;DHT22;1510;51.072;6.678;2023-05-29T01:44:12;12.30;67.00
3001;DHT22;1510;51.072;6.678;2023-05-29T01:46:40;12.30;66.90
3001;DHT22;1510;51.072;6.678;2023-05-29T01:49:08;12.40;67.20
3001;DHT22;1510;51.072;6.678;2023-05-29T01:51:36;12.30;68.80
3001;DHT22;1510;51.072;6.678;2023-05-29T01:54:04;12.30;68.60
3001;DHT22;1510;51.072;6.678;2023-05-29T01:56:31;12.30;71.10
3001;DHT22;1510;51.072;6.678;2023-05-29T01:58:58;12.40;71.20
3001;DHT22;1510;51.072;6.678;2023-05-29T02:01:27;12.30;71.10
3001;DHT22;1510;51.072;6.678;2023-05-29T02:03:54;12.30;72.20
3001;DHT22;1510;51.072;6.678;2023-05-29T02:06:21;12.40;72.80
3001;DHT22;1510;51.072;6.678;2023-05-29T02:08:48;12.30;74.00
3001;DHT22;1510;51.072;6.678;2023-05-29T02:11:14;12.30;75.70
3001;DHT22;1510;51.072;6.678;2023-05-29T02:13:42;12.30;76.10
3001;DHT22;1510;51.072;6.678;2023-05-29T02:16:08;12.30;76.70
3001;DHT22;1510;51.072;6.678;2023-05-29T02:18:37;12.30;78.60
3001;DHT22;1510;51.072;6.678;2023-05-29T02:21:04;12.20;78.90
3001;DHT22;1510;51.072;6.678;2023-05-29T02:23:31;12.20;78.90
3001;DHT22;1510;51.072;6.678;2023-05-29T02:25:58;12.20;78.90
3001;DHT22;1510;51.072;6.678;2023-05-29T02:28:25;12.10;78.90
3001;DHT22;1510;51.072;6.678;2023-05-29T02:30:51;12.10;78.90
3001;DHT22;1510;51.072;6.678;2023-05-29T02:33:18;12.10;78.90
3001;DHT22;1510;51.072;6.678;2023-05-29T02:35:46;12.00;78.80
3001;DHT22;1510;51.072;6.678;2023-05-29T02:38:13;12.00;78.80
3001;DHT22;1510;51.072;6.678;2023-05-29T02:40:40;12.00;78.80
3001;DHT22;1510;51.072;6.678;2023-05-29T02:43:08;11.90;80.60
3001;DHT22;1510;51.072;6.678;2023-05-29T02:45:35;11.80;81.60
3001;DHT22;1510;51.072;6.678;2023-05-29T02:48:02;11.80;81.90
3001;DHT22;1510;51.072;6.678;2023-05-29T02:50:29;11.70;83.50
3001;DHT22;1510;51.072;6.678;2023-05-29T02:52:57;11.60;84.20
3001;DHT22;1510;51.072;6.678;2023-05-29T02:55:24;11.60;85.50
3001;DHT22;1510;51.072;6.678;2023-05-29T02:57:51;11.50;86.00
3001;DHT22;1510;51.072;6.678;2023-05-29T03:00:20;11.60;85.20
3001;DHT22;1510;51.072;6.678;2023-05-29T03:02:47;11.60;84.50
3001;DHT22;1510;51.072;6.678;2023-05-29T03:05:14;11.50;83.90
3001;DHT22;1510;51.072;6.678;2023-05-29T03:07:42;11.40;85.60
3001;DHT22;1510;51.072;6.678;2023-05-29T03:10:10;11.40;84.90
3001;DHT22;1510;51.072;6.678;2023-05-29T03:12:37;11.40;83.10
3001;DHT22;1510;51.072;6.678;2023-05-29T03:15:05;11.40;84.50
3001;DHT22;1510;51.072;6.678;2023-05-29T03:17:33;11.40;82.20
3001;DHT22;1510;51.072;6.678;2023-05-29T03:20:02;11.40;82.00
3001;DHT22;1510;51.072;6.678;2023-05-29T03:22:33;11.30;82.00
3001;DHT22;1510;51.072;6.678;2023-05-29T03:25:01;11.30;82.80
3001;DHT22;1510;51.072;6.678;2023-05-29T03:27:29;11.30;83.00
3001;DHT22;1510;51.072;6.678;2023-05-29T03:29:56;11.20;83.10
3001;DHT22;1510;51.072;6.678;2023-05-29T03:32:23;11.20;84.20
3001;DHT22;1510;51.072;6.678;2023-05-29T03:34:50;11.10;85.60
3001;DHT22;1510;51.072;6.678;2023-05-29T03:37:16;11.10;85.70
3001;DHT22;1510;51.072;6.678;2023-05-29T03:39:43;11.00;85.60
3001;DHT22;1510;51.072;6.678;2023-05-29T03:42:10;11.10;85.70
3001;DHT22;1510;51.072;6.678;2023-05-29T03:44:38;11.10;86.30
3001;DHT22;1510;51.072;6.678;2023-05-29T03:47:05;11.10;85.70
3001;DHT22;1510;51.072;6.678;2023-05-29T03:49:34;11.00;88.00
3001;DHT22;1510;51.072;6.678;2023-05-29T03:52:01;11.00;87.70
3001;DHT22;1510;51.072;6.678;2023-05-29T03:54:27;10.90;88.10
3001;DHT22;1510;51.072;6.678;2023-05-29T03:56:54;10.90;88.40
3001;DHT22;1510;51.072;6.678;2023-05-29T03:59:21;11.00;88.20
3001;DHT22;1510;51.072;6.678;2023-05-29T04:01:49;10.90;88.90
3001;DHT22;1510;51.072;6.678;2023-05-29T04:04:16;10.90;89.70
3001;DHT22;1510;51.072;6.678;2023-05-29T04:06:43;10.90;90.60
3001;DHT22;1510;51.072;6.678;2023-05-29T04:09:10;10.80;91.30
3001;DHT22;1510;51.072;6.678;2023-05-29T04:11:37;10.80;91.30
3001;DHT22;1510;51.072;6.678;2023-05-29T04:14:04;10.80;91.30
3001;DHT22;1510;51.072;6.678;2023-05-29T04:16:31;10.80;91.30
3001;DHT22;1510;51.072;6.678;2023-05-29T04:18:59;10.80;91.30
3001;DHT22;1510;51.072;6.678;2023-05-29T04:21:25;10.90;91.30
3001;DHT22;1510;51.072;6.678;2023-05-29T04:23:52;10.80;91.30
3001;DHT22;1510;51.072;6.678;2023-05-29T04:26:21;10.80;91.30
3001;DHT22;1510;51.072;6.678;2023-05-29T04:28:51;10.90;90.80
3001;DHT22;1510;51.072;6.678;2023-05-29T04:31:22;10.90;91.10
3001;DHT22;1510;51.072;6.678;2023-05-29T04:33:51;11.00;91.20
3001;DHT22;1510;51.072;6.678;2023-05-29T04:36:22;11.00;90.10
3001;DHT22;1510;51.072;6.678;2023-05-29T04:38:51;11.00;90.40
3001;DHT22;1510;51.072;6.678;2023-05-29T04:41:18;11.00;89.00
3001;DHT22;1510;51.072;6.678;2023-05-29T04:43:45;11.10;87.30
3001;DHT22;1510;51.072;6.678;2023-05-29T04:46:12;11.20;87.00
3001;DHT22;1510;51.072;6.678;2023-05-29T04:48:40;11.20;87.60
3001;DHT22;1510;51.072;6.678;2023-05-29T04:51:09;11.20;85.70
3001;DHT22;1510;51.072;6.678;2023-05-29T04:53:38;11.20;85.40
3001;DHT22;1510;51.072;6.678;2023-05-29T04:56:05;11.30;85.80
3001;DHT22;1510;51.072;6.678;2023-05-29T04:58:32;11.30;85.80
3001;DHT22;1510;51.072;6.678;2023-05-29T05:00:59;11.30;85.20
3001;DHT22;1510;51.072;6.678;2023-05-29T05:03:28;11.40;85.00
3001;DHT22;1510;51.072;6.678;2023-05-29T05:05:56;11.40;84.30
3001;DHT22;1510;51.072;6.678;2023-05-29T05:08:23;11.40;83.90
3001;DHT22;1510;51.072;6.678;2023-05-29T05:10:51;11.50;83.70
3001;DHT22;1510;51.072;6.678;2023-05-29T05:13:18;11.50;84.20
3001;DHT22;1510;51.072;6.678;2023-05-29T05:15:45;11.60;84.40
3001;DHT22;1510;51.072;6.678;2023-05-29T05:18:12;11.60;84.10
3001;DHT22;1510;51.072;6.678;2023-05-29T05:20:39;11.80;82.70
3001;DHT22;1510;51.072;6.678;2023-05-29T05:23:05;11.90;79.80
3001;DHT22;1510;51.072;6.678;2023-05-29T05:25:32;12.20;78.90
3001;DHT22;1510;51.072;6.678;2023-05-29T05:28:01;12.50;79.20
3001;DHT22;1510;51.072;6.678;2023-05-29T05:30:29;12.70;76.60
3001;DHT22;1510;51.072;6.678;2023-05-29T05:32:56;12.80;75.10
3001;DHT22;1510;51.072;6.678;2023-05-29T05:35:23;12.80;73.70
3001;DHT22;1510;51.072;6.678;2023-05-29T05:37:50;12.90;73.70
3001;DHT22;1510;51.072;6.678;2023-05-29T05:40:16;13.10;71.90
3001;DHT22;1510;51.072;6.678;2023-05-29T05:42:43;13.10;70.60
3001;DHT22;1510;51.072;6.678;2023-05-29T05:45:11;13.40;72.10
3001;DHT22;1510;51.072;6.678;2023-05-29T05:47:38;13.20;68.60
3001;DHT22;1510;51.072;6.678;2023-05-29T05:50:06;13.40;68.70
3001;DHT22;1510;51.072;6.678;2023-05-29T05:52:33;13.80;67.80
3001;DHT22;1510;51.072;6.678;2023-05-29T05:54:59;14.20;66.70
3001;DHT22;1510;51.072;6.678;2023-05-29T05:57:26;13.90;64.70
3001;DHT22;1510;51.072;6.678;2023-05-29T05:59:53;13.80;64.50
3001;DHT22;1510;51.072;6.678;2023-05-29T06:02:21;14.00;64.60
3001;DHT22;1510;51.072;6.678;2023-05-29T06:04:48;14.30;64.90
3001;DHT22;1510;51.072;6.678;2023-05-29T06:07:15;14.40;65.00
3001;DHT22;1510;51.072;6.678;2023-05-29T06:09:42;14.40;63.80
3001;DHT22;1510;51.072;6.678;2023-05-29T06:12:09;14.70;61.80
3001;DHT22;1510;51.072;6.678;2023-05-29T06:14:36;14.90;62.70
3001;DHT22;1510;51.072;6.678;2023-05-29T06:17:02;14.70;61.80
3001;DHT22;1510;51.072;6.678;2023-05-29T06:19:31;14.90;61.00
3001;DHT22;1510;51.072;6.678;2023-05-29T06:21:57;14.70;59.70
3001;DHT22;1510;51.072;6.678;2023-05-29T06:24:24;15.00;60.70
3001;DHT22;1510;51.072;6.678;2023-05-29T06:26:51;15.00;59.40
3001;DHT22;1510;51.072;6.678;2023-05-29T06:29:18;14.90;57.20
3001;DHT22;1510;51.072;6.678;2023-05-29T06:31:44;15.10;57.30
3001;DHT22;1510;51.072;6.678;2023-05-29T06:34:11;15.20;57.40
3001;DHT22;1510;51.072;6.678;2023-05-29T06:36:39;15.00;57.20
3001;DHT22;1510;51.072;6.678;2023-05-29T06:39:07;15.30;57.30
3001;DHT22;1510;51.072;6.678;2023-05-29T06:41:34;15.40;57.50
3001;DHT22;1510;51.072;6.678;2023-05-29T06:44:00;15.40;55.80
3001;DHT22;1510;51.072;6.678;2023-05-29T06:46:28;15.90;53.70
3001;DHT22;1510;51.072;6.678;2023-05-29T06:48:55;15.50;53.50
3001;DHT22;1510;51.072;6.678;2023-05-29T06:51:21;15.80;53.70
3001;DHT22;1510;51.072;6.678;2023-05-29T06:53:49;15.60;54.00
3001;DHT22;1510;51.072;6.678;2023-05-29T06:56:16;15.70;54.80
3001;DHT22;1510;51.072;6.678;2023-05-29T06:58:43;15.80;55.40
3001;DHT22;1510;51.072;6.678;2023-05-29T07:01:11;15.40;54.30
3001;DHT22;1510;51.072;6.678;2023-05-29T07:03:38;15.20;53.40
3001;DHT22;1510;51.072;6.678;2023-05-29T07:06:05;15.40;52.80
3001;DHT22;1510;51.072;6.678;2023-05-29T07:08:32;15.80;56.20
3001;DHT22;1510;51.072;6.678;2023-05-29T07:11:01;16.00;52.60
3001;DHT22;1510;51.072;6.678;2023-05-29T07:13:29;15.80;52.20
3001;DHT22;1510;51.072;6.678;2023-05-29T07:15:55;15.70;54.60
3001;DHT22;1510;51.072;6.678;2023-05-29T07:18:22;15.90;50.90
3001;DHT22;1510;51.072;6.678;2023-05-29T07:20:49;16.10;51.80
3001;DHT22;1510;51.072;6.678;2023-05-29T07:23:16;15.90;51.40
3001;DHT22;1510;51.072;6.678;2023-05-29T07:25:42;16.60;53.20
3001;DHT22;1510;51.072;6.678;2023-05-29T07:28:11;16.80;50.30
3001;DHT22;1510;51.072;6.678;2023-05-29T07:30:37;17.30;53.50
3001;DHT22;1510;51.072;6.678;2023-05-29T07:33:04;17.00;47.70
3001;DHT22;1510;51.072;6.678;2023-05-29T07:35:31;16.70;46.30
3001;DHT22;1510;51.072;6.678;2023-05-29T07:37:59;16.40;49.80
3001;DHT22;1510;51.072;6.678;2023-05-29T07:40:25;16.40;49.80
3001;DHT22;1510;51.072;6.678;2023-05-29T07:42:52;16.30;49.80
3001;DHT22;1510;51.072;6.678;2023-05-29T07:45:21;16.50;50.00
3001;DHT22;1510;51.072;6.678;2023-05-29T07:47:47;16.60;50.10
3001;DHT22;1510;51.072;6.678;2023-05-29T07:50:14;16.90;50.30
3001;DHT22;1510;51.072;6.678;2023-05-29T07:52:42;16.90;50.30
3001;DHT22;1510;51.072;6.678;2023-05-29T07:55:09;17.10;50.50
3001;DHT22;1510;51.072;6.678;2023-05-29T07:57:35;16.90;46.90
3001;DHT22;1510;51.072;6.678;2023-05-29T08:00:03;16.60;47.10
3001;DHT22;1510;51.072;6.678;2023-05-29T08:02:34;17.10;48.10
3001;DHT22;1510;51.072;6.678;2023-05-29T08:05:02;17.00;46.90
3001;DHT22;1510;51.072;6.678;2023-05-29T08:07:29;17.00;46.50
3001;DHT22;1510;51.072;6.678;2023-05-29T08:09:56;16.80;47.50
3001;DHT22;1510;51.072;6.678;2023-05-29T08:12:22;17.10;45.80
3001;DHT22;1510;51.072;6.678;2023-05-29T08:14:50;17.20;47.10
3001;DHT22;1510;51.072;6.678;2023-05-29T08:17:16;17.50;49.50
3001;DHT22;1510;51.072;6.678;2023-05-29T08:19:44;18.30;45.00
3001;DHT22;1510;51.072;6.678;2023-05-29T08:22:12;17.60;42.10
3001;DHT22;1510;51.072;6.678;2023-05-29T08:24:40;18.10;43.10
3001;DHT22;1510;51.072;6.678;2023-05-29T08:27:07;18.10;42.60
3001;DHT22;1510;51.072;6.678;2023-05-29T08:29:34;17.90;39.70
3001;DHT22;1510;51.072;6.678;2023-05-29T08:32:04;17.70;42.20
3001;DHT22;1510;51.072;6.678;2023-05-29T08:34:31;18.10;40.20
3001;DHT22;1510;51.072;6.678;2023-05-29T08:37:00;17.70;40.70
3001;DHT22;1510;51.072;6.678;2023-05-29T08:39:27;17.90;42.40
3001;DHT22;1510;51.072;6.678;2023-05-29T08:41:59;17.70;42.20
3001;DHT22;1510;51.072;6.678;2023-05-29T08:44:30;18.30;42.80
3001;DHT22;1510;51.072;6.678;2023-05-29T08:47:00;18.60;41.50
3001;DHT22;1510;51.072;6.678;2023-05-29T08:49:29;18.90;36.30
3001;DHT22;1510;51.072;6.678;2023-05-29T08:52:09;18.70;37.60
3001;DHT22;1510;51.072;6.678;2023-05-29T08:54:36;18.90;35.30
3001;DHT22;1510;51.072;6.678;2023-05-29T08:57:04;19.20;39.10
3001;DHT22;1510;51.072;6.678;2023-05-29T08:59:31;18.80;38.50
3001;DHT22;1510;51.072;6.678;2023-05-29T09:01:58;18.80;37.40
3001;DHT22;1510;51.072;6.678;2023-05-29T09:04:27;19.20;39.20
3001;DHT22;1510;51.072;6.678;2023-05-29T09:06:56;19.30;34.70
3001;DHT22;1510;51.072;6.678;2023-05-29T09:09:25;18.90;34.30
3001;DHT22;1510;51.072;6.678;2023-05-29T09:11:53;19.40;36.60
3001;DHT22;1510;51.072;6.678;2023-05-29T09:14:32;20.40;34.90
3001;DHT22;1510;51.072;6.678;2023-05-29T09:17:01;20.80;31.80
3001;DHT22;1510;51.072;6.678;2023-05-29T09:19:29;21.00;32.20
3001;DHT22;1510;51.072;6.678;2023-05-29T09:22:03;20.10;30.00
3001;DHT22;1510;51.072;6.678;2023-05-29T09:24:32;20.00;31.50
3001;DHT22;1510;51.072;6.678;2023-05-29T09:27:00;19.90;35.20
3001;DHT22;1510;51.072;6.678;2023-05-29T09:29:27;20.10;35.40
3001;DHT22;1510;51.072;6.678;2023-05-29T09:31:54;20.40;31.00
3001;DHT22;1510;51.072;6.678;2023-05-29T09:34:23;20.30;30.60
3001;DHT22;1510;51.072;6.678;2023-05-29T09:36:52;19.50;31.00
3001;DHT22;1510;51.072;6.678;2023-05-29T09:39:19;19.60;31.80
3001;DHT22;1510;51.072;6.678;2023-05-29T09:41:47;19.50;34.70
3001;DHT22;1510;51.072;6.678;2023-05-29T09:44:15;20.20;35.50
3001;DHT22;1510;51.072;6.678;2023-05-29T09:46:42;20.30;31.50
3001;DHT22;1510;51.072;6.678;2023-05-29T09:49:11;20.30;30.50
3001;DHT22;1510;51.072;6.678;2023-05-29T09:51:38;19.90;32.40
3001;DHT22;1510;51.072;6.678;2023-05-29T09:54:17;19.90;35.20
3001;DHT22;1510;51.072;6.678;2023-05-29T09:56:45;19.80;31.70
3001;DHT22;1510;51.072;6.678;2023-05-29T09:59:15;20.30;32.00
3001;DHT22;1510;51.072;6.678;2023-05-29T10:01:44;20.40;35.70
3001;DHT22;1510;51.072;6.678;2023-05-29T10:04:11;20.40;29.50
3001;DHT22;1510;51.072;6.678;2023-05-29T10:06:43;20.40;28.50
3001;DHT22;1510;51.072;6.678;2023-05-29T10:09:12;20.40;27.50
3001;DHT22;1510;51.072;6.678;2023-05-29T10:11:42;21.00;27.70
3001;DHT22;1510;51.072;6.678;2023-05-29T10:14:16;20.90;30.10
3001;DHT22;1510;51.072;6.678;2023-05-29T10:16:46;20.70;27.50
3001;DHT22;1510;51.072;6.678;2023-05-29T10:19:18;20.50;33.20
3001;DHT22;1510;51.072;6.678;2023-05-29T10:21:45;20.70;27.50
3001;DHT22;1510;51.072;6.678;2023-05-29T10:24:14;20.50;28.50
3001;DHT22;1510;51.072;6.678;2023-05-29T10:26:43;20.70;28.60
3001;DHT22;1510;51.072;6.678;2023-05-29T10:29:15;20.50;27.40
3001;DHT22;1510;51.072;6.678;2023-05-29T10:31:58;21.20;31.80
3001;DHT22;1510;51.072;6.678;2023-05-29T10:34:31;21.30;25.70
3001;DHT22;1510;51.072;6.678;2023-05-29T10:37:06;20.90;27.70
3001;DHT22;1510;51.072;6.678;2023-05-29T10:39:36;20.10;26.80
3001;DHT22;1510;51.072;6.678;2023-05-29T10:42:40;20.90;27.70
3001;DHT22;1510;51.072;6.678;2023-05-29T10:45:08;20.80;24.00
3001;DHT22;1510;51.072;6.678;2023-05-29T10:47:36;21.40;28.00
3001;DHT22;1510;51.072;6.678;2023-05-29T10:50:03;21.60;25.20
3001;DHT22;1510;51.072;6.678;2023-05-29T10:52:31;21.70;25.30
3001;DHT22;1510;51.072;6.678;2023-05-29T10:54:58;21.30;26.00
3001;DHT22;1510;51.072;6.678;2023-05-29T10:57:25;21.20;25.50
3001;DHT22;1510;51.072;6.678;2023-05-29T11:00:05;21.20;24.70
3001;DHT22;1510;51.072;6.678;2023-05-29T11:02:40;21.90;26.50
3001;DHT22;1510;51.072;6.678;2023-05-29T11:05:23;22.20;21.30
3001;DHT22;1510;51.072;6.678;2023-05-29T11:07:55;22.60;22.10
3001;DHT22;1510;51.072;6.678;2023-05-29T11:10:41;22.40;18.40
3001;DHT22;1510;51.072;6.678;2023-05-29T11:13:09;21.70;20.90
3001;DHT22;1510;51.072;6.678;2023-05-29T11:15:36;22.00;21.10
3001;DHT22;1510;51.072;6.678;2023-05-29T11:18:08;22.00;21.10
3001;DHT22;1510;51.072;6.678;2023-05-29T11:20:43;22.40;24.70
3001;DHT22;1510;51.072;6.678;2023-05-29T11:23:15;22.40;19.50
3001;DHT22;1510;51.072;6.678;2023-05-29T11:25:45;22.70;21.60
3001;DHT22;1510;51.072;6.678;2023-05-29T11:28:12;22.70;17.90
3001;DHT22;1510;51.072;6.678;2023-05-29T11:30:44;22.30;20.80
3001;DHT22;1510;51.072;6.678;2023-05-29T11:33:19;22.30;19.00
3001;DHT22;1510;51.072;6.678;2023-05-29T11:35:49;22.20;17.40
3001;DHT22;1510;51.072;6.678;2023-05-29T11:38:17;22.70;17.20
3001;DHT22;1510;51.072;6.678;2023-05-29T11:40:44;23.00;17.80
3001;DHT22;1510;51.072;6.678;2023-05-29T11:43:12;23.50;16.80
3001;DHT22;1510;51.072;6.678;2023-05-29T11:45:39;24.00;15.10
3001;DHT22;1510;51.072;6.678;2023-05-29T11:48:06;23.10;14.40
3001;DHT22;1510;51.072;6.678;2023-05-29T11:50:36;23.20;14.50
3001;DHT22;1510;51.072;6.678;2023-05-29T11:53:06;23.20;14.50
3001;DHT22;1510;51.072;6.678;2023-05-29T11:55:33;22.20;15.20
3001;DHT22;1510;51.072;6.678;2023-05-29T11:58:01;22.40;18.40
3001;DHT22;1510;51.072;6.678;2023-05-29T12:00:31;22.70;14.30
3001;DHT22;1510;51.072;6.678;2023-05-29T12:02:58;23.40;14.70
3001;DHT22;1510;51.072;6.678;2023-05-29T12:05:29;23.30;10.80
3001;DHT22;1510;51.072;6.678;2023-05-29T12:07:58;24.40;9.20
3001;DHT22;1510;51.072;6.678;2023-05-29T12:10:27;24.90;8.10
3001;DHT22;1510;51.072;6.678;2023-05-29T12:12:55;25.10;9.70
3001;DHT22;1510;51.072;6.678;2023-05-29T12:15:22;24.20;7.40
3001;DHT22;1510;51.072;6.678;2023-05-29T12:17:50;24.00;11.80
3001;DHT22;1510;51.072;6.678;2023-05-29T12:20:18;23.70;7.20
3001;DHT22;1510;51.072;6.678;2023-05-29T12:22:46;23.60;10.80
3001;DHT22;1510;51.072;6.678;2023-05-29T12:25:15;24.00;10.10
3001;DHT22;1510;51.072;6.678;2023-05-29T12:27:43;24.10;8.70
3001;DHT22;1510;51.072;6.678;2023-05-29T12:30:13;23.50;10.90
3001;DHT22;1510;51.072;6.678;2023-05-29T12:32:42;23.50;11.00
3001;DHT22;1510;51.072;6.678;2023-05-29T12:35:13;23.00;8.70
3001;DHT22;1510;51.072;6.678;2023-05-29T12:37:45;23.50;12.00
3001;DHT22;1510;51.072;6.678;2023-05-29T12:40:17;23.50;7.10
3001;DHT22;1510;51.072;6.678;2023-05-29T12:42:44;23.20;11.30
3001;DHT22;1510;51.072;6.678;2023-05-29T12:45:11;23.20;10.80
3001;DHT22;1510;51.072;6.678;2023-05-29T12:47:44;22.90;10.50
3001;DHT22;1510;51.072;6.678;2023-05-29T12:50:25;23.10;9.80
3001;DHT22;1510;51.072;6.678;2023-05-29T12:52:59;23.10;8.30
3001;DHT22;1510;51.072;6.678;2023-05-29T12:55:32;23.70;8.00
3001;DHT22;1510;51.072;6.678;2023-05-29T12:58:06;24.20;7.60
3001;DHT22;1510;51.072;6.678;2023-05-29T13:00:34;24.40;7.40
3001;DHT22;1510;51.072;6.678;2023-05-29T13:03:04;24.20;4.00
3001;DHT22;1510;51.072;6.678;2023-05-29T13:05:31;24.20;5.90
3001;DHT22;1510;51.072;6.678;2023-05-29T13:07:58;23.40;7.00
3001;DHT22;1510;51.072;6.678;2023-05-29T13:10:26;23.50;7.20
3001;DHT22;1510;51.072;6.678;2023-05-29T13:12:55;23.60;10.70
3001;DHT22;1510;51.072;6.678;2023-05-29T13:15:25;23.60;7.20
3001;DHT22;1510;51.072;6.678;2023-05-29T13:17:52;25.00;7.00
3001;DHT22;1510;51.072;6.678;2023-05-29T13:20:20;24.50;4.20
3001;DHT22;1510;51.072;6.678;2023-05-29T13:22:48;24.50;5.00
3001;DHT22;1510;51.072;6.678;2023-05-29T13:25:16;24.90;4.80
3001;DHT22;1510;51.072;6.678;2023-05-29T13:27:45;25.30;1.00
3001;DHT22;1510;51.072;6.678;2023-05-29T13:30:14;24.90;6.20
3001;DHT22;1510;51.072;6.678;2023-05-29T13:32:41;24.30;2.60
3001;DHT22;1510;51.072;6.678;2023-05-29T13:35:09;24.10;4.20
3001;DHT22;1510;51.072;6.678;2023-05-29T13:37:36;23.90;4.50
3001;DHT22;1510;51.072;6.678;2023-05-29T13:40:03;23.70;5.00
3001;DHT22;1510;51.072;6.678;2023-05-29T13:42:30;23.80;4.00
3001;DHT22;1510;51.072;6.678;2023-05-29T13:44:57;24.20;4.10
3001;DHT22;1510;51.072;6.678;2023-05-29T13:47:25;24.20;4.10
3001;DHT22;1510;51.072;6.678;2023-05-29T13:49:54;24.10;3.80
3001;DHT22;1510;51.072;6.678;2023-05-29T13:52:21;23.40;4.70
3001;DHT22;1510;51.072;6.678;2023-05-29T13:54:48;23.90;5.10
3001;DHT22;1510;51.072;6.678;2023-05-29T13:57:15;23.90;3.50
3001;DHT22;1510;51.072;6.678;2023-05-29T13:59:41;24.10;2.00
3001;DHT22;1510;51.072;6.678;2023-05-29T14:02:08;24.60;1.30
3001;DHT22;1510;51.072;6.678;2023-05-29T14:04:36;24.40;3.10
3001;DHT22;1510;51.072;6.678;2023-05-29T14:07:04;24.30;3.10
3001;DHT22;1510;51.072;6.678;2023-05-29T14:09:31;23.50;2.70
3001;DHT22;1510;51.072;6.678;2023-05-29T14:11:59;23.40;7.00
3001;DHT22;1510;51.072;6.678;2023-05-29T14:14:26;23.60;4.30
3001;DHT22;1510;51.072;6.678;2023-05-29T14:16:53;23.40;5.00
3001;DHT22;1510;51.072;6.678;2023-05-29T14:19:20;22.90;6.60
3001;DHT22;1510;51.072;6.678;2023-05-29T14:21:48;23.80;6.90
3001;DHT22;1510;51.072;6.678;2023-05-29T14:24:15;24.00;7.40
3001;DHT22;1510;51.072;6.678;2023-05-29T14:26:43;23.60;5.60
3001;DHT22;1510;51.072;6.678;2023-05-29T14:29:13;23.80;6.50
3001;DHT22;1510;51.072;6.678;2023-05-29T14:31:40;23.40;5.70
3001;DHT22;1510;51.072;6.678;2023-05-29T14:34:07;23.00;6.70
3001;DHT22;1510;51.072;6.678;2023-05-29T14:36:34;23.10;6.80
3001;DHT22;1510;51.072;6.678;2023-05-29T14:39:04;22.90;6.60
3001;DHT22;1510;51.072;6.678;2023-05-29T14:41:31;22.30;6.20
3001;DHT22;1510;51.072;6.678;2023-05-29T14:43:59;22.50;9.90
3001;DHT22;1510;51.072;6.678;2023-05-29T14:46:26;22.80;6.60
3001;DHT22;1510;51.072;6.678;2023-05-29T14:48:56;23.10;6.80
3001;DHT22;1510;51.072;6.678;2023-05-29T14:51:23;22.70;6.50
3001;DHT22;1510;51.072;6.678;2023-05-29T14:53:50;22.60;6.40
3001;DHT22;1510;51.072;6.678;2023-05-29T14:56:19;22.70;5.30
3001;DHT22;1510;51.072;6.678;2023-05-29T14:58:46;22.80;6.60
3001;DHT22;1510;51.072;6.678;2023-05-29T15:01:13;22.80;6.60
3001;DHT22;1510;51.072;6.678;2023-05-29T15:03:40;22.70;4.00
3001;DHT22;1510;51.072;6.678;2023-05-29T15:06:09;22.90;6.60
3001;DHT22;1510;51.072;6.678;2023-05-29T15:08:35;22.70;6.40
3001;DHT22;1510;51.072;6.678;2023-05-29T15:11:02;22.60;6.40
3001;DHT22;1510;51.072;6.678;2023-05-29T15:13:31;21.70;5.80
3001;DHT22;1510;51.072;6.678;2023-05-29T15:15:57;21.60;6.60
3001;DHT22;1510;51.072;6.678;2023-05-29T15:18:25;21.50;8.30
3001;DHT22;1510;51.072;6.678;2023-05-29T15:20:52;21.80;8.70
3001;DHT22;1510;51.072;6.678;2023-05-29T15:23:19;21.60;6.90
3001;DHT22;1510;51.072;6.678;2023-05-29T15:25:48;21.50;9.10
3001;DHT22;1510;51.072;6.678;2023-05-29T15:28:15;21.50;5.60
3001;DHT22;1510;51.072;6.678;2023-05-29T15:30:43;21.80;5.80
3001;DHT22;1510;51.072;6.678;2023-05-29T15:33:10;22.00;7.90
3001;DHT22;1510;51.072;6.678;2023-05-29T15:35:37;22.30;6.20
3001;DHT22;1510;51.072;6.678;2023-05-29T15:38:05;22.60;6.40
3001;DHT22;1510;51.072;6.678;2023-05-29T15:40:31;22.80;6.60
3001;DHT22;1510;51.072;6.678;2023-05-29T15:42:58;22.70;3.90
3001;DHT22;1510;51.072;6.678;2023-05-29T15:45:25;23.30;5.40
3001;DHT22;1510;51.072;6.678;2023-05-29T15:47:54;23.10;2.60
3001;DHT22;1510;51.072;6.678;2023-05-29T15:50:21;23.30;4.00
3001;DHT22;1510;51.072;6.678;2023-05-29T15:52:48;23.50;1.00
3001;DHT22;1510;51.072;6.678;2023-05-29T15:55:15;23.70;1.00
3001;DHT22;1510;51.072;6.678;2023-05-29T15:57:42;23.80;1.00
3001;DHT22;1510;51.072;6.678;2023-05-29T16:00:09;23.40;1.00
3001;DHT22;1510;51.072;6.678;2023-05-29T16:02:38;23.40;1.00
3001;DHT22;1510;51.072;6.678;2023-05-29T16:05:07;23.70;1.00
3001;DHT22;1510;51.072;6.678;2023-05-29T16:07:34;24.40;1.00
3001;DHT22;1510;51.072;6.678;2023-05-29T16:10:01;24.00;1.00
3001;DHT22;1510;51.072;6.678;2023-05-29T16:12:28;23.70;1.00